createdAt,value
2024-03-03T00:02:20.532Z,62.62
2024-03-03T00:04:50.667Z,62.69
2024-03-03T00:07:23.648Z,62.91
2024-03-03T00:09:53.835Z,62.61
2024-03-03T00:12:24.042Z,62.61
2024-03-03T00:14:54.149Z,62.60
2024-03-03T00:17:24.360Z,62.62
2024-03-03T00:19:54.400Z,62.73
2024-03-03T00:22:27.080Z,62.53
2024-03-03T00:24:57.203Z,62.66
2024-03-03T00:27:27.807Z,62.57
2024-03-03T00:29:57.942Z,62.60
2024-03-03T00:32:28.921Z,62.84
2024-03-03T00:34:59.696Z,62.77
2024-03-03T00:37:32.453Z,62.75
2024-03-03T00:40:02.582Z,62.98
2024-03-03T00:42:32.712Z,62.99
2024-03-03T00:45:02.843Z,63.32
2024-03-03T00:47:33.232Z,63.18
2024-03-03T00:50:03.727Z,63.21
2024-03-03T00:52:36.465Z,63.23
2024-03-03T00:55:07.145Z,63.42
2024-03-03T00:57:37.475Z,63.60
2024-03-03T01:00:10.280Z,63.62
2024-03-03T01:02:43.482Z,63.47
2024-03-03T01:05:14.822Z,63.44
2024-03-03T01:07:47.676Z,63.38
2024-03-03T01:10:18.024Z,63.58
2024-03-03T01:12:48.186Z,63.51
2024-03-03T01:15:18.528Z,63.70
2024-03-03T01:17:48.980Z,63.85
2024-03-03T01:20:19.378Z,63.72
2024-03-03T01:22:52.250Z,63.72
2024-03-03T01:25:22.629Z,63.71
2024-03-03T01:27:53.513Z,63.99
2024-03-03T01:30:23.630Z,64.02
2024-03-03T01:32:53.826Z,63.96
2024-03-03T01:35:23.973Z,64.05
2024-03-03T01:37:56.853Z,64.12
2024-03-03T01:40:27.044Z,64.19
2024-03-03T01:42:59.525Z,64.49
2024-03-03T01:45:29.782Z,64.35
2024-03-03T01:48:00.386Z,64.56
2024-03-03T01:50:31.478Z,64.53
2024-03-03T01:53:04.681Z,64.45
2024-03-03T01:55:34.904Z,64.55
2024-03-03T01:58:06.977Z,64.68
2024-03-03T02:00:38.292Z,64.77
2024-03-03T02:03:11.075Z,64.78
2024-03-03T02:05:42.594Z,64.84
2024-03-03T02:08:15.850Z,65.04
2024-03-03T02:10:46.741Z,64.98
2024-03-03T02:13:17.623Z,64.96
2024-03-03T02:15:48.177Z,65.14
2024-03-03T02:18:18.840Z,65.24
2024-03-03T02:20:49.234Z,65.52
2024-03-03T02:23:22.441Z,65.61
2024-03-03T02:25:52.738Z,65.93
2024-03-03T02:28:26.202Z,66.27
2024-03-03T02:30:56.316Z,66.52
2024-03-03T02:33:26.427Z,67.04
2024-03-03T02:35:56.512Z,67.58
2024-03-03T02:38:29.526Z,67.67
2024-03-03T02:40:59.619Z,67.59
2024-03-03T02:43:29.685Z,67.75
2024-03-03T02:45:59.821Z,68.06
2024-03-03T02:48:30.483Z,68.09
2024-03-03T02:51:00.739Z,68.16
2024-03-03T02:53:33.365Z,68.29
2024-03-03T02:56:03.884Z,68.21
2024-03-03T02:58:34.452Z,68.31
2024-03-03T03:01:04.842Z,68.30
2024-03-03T03:03:35.137Z,68.44
2024-03-03T03:06:05.323Z,68.36
2024-03-03T03:08:38.325Z,68.58
2024-03-03T03:11:09.046Z,68.73
2024-03-03T03:13:41.462Z,68.79
2024-03-03T03:16:12.035Z,69.10
2024-03-03T03:18:42.438Z,69.37
2024-03-03T03:21:12.643Z,69.51
2024-03-03T03:23:45.286Z,69.58
2024-03-03T03:26:15.399Z,69.75
2024-03-03T03:28:45.617Z,69.78
2024-03-03T03:31:16.639Z,70.16
2024-03-03T03:33:47.396Z,69.95
2024-03-03T03:36:19.270Z,70.27
2024-03-03T03:38:51.932Z,70.02
2024-03-03T03:41:22.056Z,70.72
2024-03-03T03:43:52.789Z,70.96
2024-03-03T03:46:22.952Z,70.98
2024-03-03T03:48:53.130Z,71.13
2024-03-03T03:51:23.203Z,71.37
2024-03-03T03:53:56.541Z,71.80
2024-03-03T03:56:26.781Z,71.93
2024-03-03T03:58:56.903Z,71.95
2024-03-03T04:01:28.779Z,72.12
2024-03-03T04:03:59.155Z,71.99
2024-03-03T04:06:31.318Z,72.00
2024-03-03T04:09:05.674Z,72.25
2024-03-03T04:11:35.832Z,71.98
2024-03-03T04:14:05.910Z,72.03
2024-03-03T04:16:36.624Z,71.85
2024-03-03T04:19:06.742Z,71.96
2024-03-03T04:21:36.813Z,71.79
2024-03-03T04:24:11.933Z,71.84
2024-03-03T04:26:43.567Z,71.60
2024-03-03T04:29:13.680Z,71.84
2024-03-03T04:31:46.781Z,72.15
2024-03-03T04:34:17.267Z,72.18
2024-03-03T04:36:48.299Z,72.41
2024-03-03T04:39:20.944Z,72.32
2024-03-03T04:41:51.218Z,72.21
2024-03-03T04:44:21.435Z,72.28
2024-03-03T04:46:51.895Z,72.38
2024-03-03T04:49:22.163Z,72.35
2024-03-03T04:51:52.841Z,72.36
2024-03-03T04:54:25.549Z,72.39
2024-03-03T04:56:56.158Z,72.85
2024-03-03T04:59:26.224Z,73.06
2024-03-03T05:01:56.395Z,73.08
2024-03-03T05:04:28.582Z,73.11
2024-03-03T05:06:59.261Z,73.09
2024-03-03T05:09:32.016Z,73.96
2024-03-03T05:12:02.211Z,73.66
2024-03-03T05:14:32.369Z,73.46
2024-03-03T05:17:02.849Z,73.70
2024-03-03T05:19:32.877Z,73.59
2024-03-03T05:22:03.252Z,73.59
2024-03-03T05:24:36.142Z,73.28
2024-03-03T05:27:07.275Z,72.89
2024-03-03T05:29:37.369Z,73.37
2024-03-03T05:32:08.413Z,73.59
2024-03-03T05:34:38.537Z,73.39
2024-03-03T05:37:09.053Z,73.14
2024-03-03T05:39:41.874Z,74.28
2024-03-03T05:42:12.566Z,74.02
2024-03-03T05:44:42.647Z,74.03
2024-03-03T05:47:13.448Z,74.23
2024-03-03T05:49:43.536Z,74.24
2024-03-03T05:52:13.752Z,74.24
2024-03-03T05:54:46.489Z,74.49
2024-03-03T05:57:16.833Z,74.51
2024-03-03T05:59:47.030Z,74.87
2024-03-03T06:02:18.235Z,74.75
2024-03-03T06:04:48.403Z,74.82
2024-03-03T06:07:19.796Z,74.67
2024-03-03T06:09:52.586Z,74.57
2024-03-03T06:12:22.684Z,74.77
2024-03-03T06:14:53.445Z,74.67
2024-03-03T06:17:23.874Z,74.60
2024-03-03T06:19:54.916Z,74.60
2024-03-03T06:22:25.126Z,74.63
2024-03-03T06:24:57.954Z,74.73
2024-03-03T06:27:28.451Z,74.74
2024-03-03T06:29:58.592Z,74.64
2024-03-03T06:32:28.796Z,74.76
2024-03-03T06:34:59.024Z,74.71
2024-03-03T06:37:31.743Z,74.79
2024-03-03T06:40:04.544Z,74.58
2024-03-03T06:42:35.147Z,74.32
2024-03-03T06:45:05.296Z,74.42
2024-03-03T06:47:38.771Z,74.50
2024-03-03T06:50:10.274Z,74.16
2024-03-03T06:52:40.397Z,74.08
2024-03-03T06:55:13.403Z,74.08
2024-03-03T06:57:43.675Z,73.98
2024-03-03T07:00:14.938Z,73.91
2024-03-03T07:02:57.720Z,74.03
2024-03-03T07:05:27.870Z,73.97
2024-03-03T07:08:01.271Z,73.99
2024-03-03T07:10:34.762Z,74.00
2024-03-03T07:13:05.070Z,74.09
2024-03-03T07:15:35.159Z,73.94
2024-03-03T07:18:06.307Z,74.12
2024-03-03T07:20:36.438Z,74.08
2024-03-03T07:23:06.585Z,74.20
2024-03-03T07:25:39.224Z,74.08
2024-03-03T07:28:10.208Z,74.14
2024-03-03T07:30:40.697Z,74.01
2024-03-03T07:33:10.842Z,74.16
2024-03-03T07:35:40.927Z,73.96
2024-03-03T07:38:11.169Z,74.08
2024-03-03T07:40:45.818Z,73.82
2024-03-03T07:43:16.735Z,73.97
2024-03-03T07:45:46.852Z,73.64
2024-03-03T07:48:17.349Z,73.56
2024-03-03T07:50:47.397Z,73.34
2024-03-03T07:53:18.017Z,73.19
2024-03-03T07:55:50.727Z,73.23
2024-03-03T07:58:21.004Z,72.93
2024-03-03T08:00:51.240Z,73.04
2024-03-03T08:03:21.775Z,72.90
2024-03-03T08:05:51.899Z,72.60
2024-03-03T08:08:22.497Z,72.30
2024-03-03T08:10:55.259Z,72.24
2024-03-03T08:13:25.425Z,72.02
2024-03-03T08:15:55.538Z,71.69
2024-03-03T08:18:25.893Z,71.38
2024-03-03T08:20:56.060Z,71.24
2024-03-03T08:23:26.292Z,70.69
2024-03-03T08:25:59.117Z,70.76
2024-03-03T08:28:29.485Z,70.84
2024-03-03T08:30:59.717Z,70.61
2024-03-03T08:33:30.996Z,70.40
2024-03-03T08:36:01.396Z,70.33
2024-03-03T08:38:35.385Z,70.09
2024-03-03T08:41:08.449Z,69.63
2024-03-03T08:43:38.682Z,69.45
2024-03-03T08:46:09.488Z,69.46
2024-03-03T08:48:40.052Z,69.28
2024-03-03T08:51:11.686Z,68.98
2024-03-03T08:53:41.858Z,68.37
2024-03-03T08:56:14.523Z,68.21
2024-03-03T08:58:44.636Z,67.76
2024-03-03T09:01:16.276Z,67.45
2024-03-03T09:03:46.655Z,67.07
2024-03-03T09:06:16.894Z,66.32
2024-03-03T09:08:47.769Z,66.74
2024-03-03T09:11:20.578Z,65.47
2024-03-03T09:13:50.937Z,65.52
2024-03-03T09:16:22.956Z,63.76
2024-03-03T09:18:55.422Z,63.18
2024-03-03T09:21:25.850Z,63.07
2024-03-03T09:23:55.951Z,63.35
2024-03-03T09:26:28.582Z,62.91
2024-03-03T09:28:58.708Z,62.71
2024-03-03T09:31:28.823Z,62.83
2024-03-03T09:33:59.111Z,63.15
2024-03-03T09:36:29.300Z,62.89
2024-03-03T09:38:59.519Z,62.55
2024-03-03T09:41:33.239Z,62.24
2024-03-03T09:44:19.140Z,61.63
2024-03-03T09:46:52.165Z,60.76
2024-03-03T09:49:22.721Z,61.14
2024-03-03T09:51:53.341Z,60.85
2024-03-03T09:54:23.442Z,61.00
2024-03-03T09:57:05.629Z,60.80
2024-03-03T09:59:36.453Z,61.00
2024-03-03T10:02:12.934Z,61.40
2024-03-03T10:04:48.203Z,59.56
2024-03-03T10:07:26.076Z,59.23
2024-03-03T10:10:04.374Z,58.88
2024-03-03T10:12:37.822Z,58.19
2024-03-03T10:15:09.708Z,57.46
2024-03-03T10:17:40.055Z,56.93
2024-03-03T10:20:11.090Z,56.83
2024-03-03T10:22:42.264Z,56.94
2024-03-03T10:25:15.595Z,57.06
2024-03-03T10:27:50.235Z,56.60
2024-03-03T10:30:23.781Z,57.60
2024-03-03T10:32:54.331Z,57.18
2024-03-03T10:35:24.550Z,56.76
2024-03-03T10:38:00.641Z,56.45
2024-03-03T10:40:30.893Z,56.51
2024-03-03T10:43:03.738Z,56.55
2024-03-03T10:45:33.982Z,56.05
2024-03-03T10:48:05.367Z,55.67
2024-03-03T10:50:35.971Z,55.42
2024-03-03T10:53:06.086Z,54.60
2024-03-03T10:55:38.011Z,54.35
2024-03-03T10:58:12.498Z,54.71
2024-03-03T11:00:44.147Z,54.59
2024-03-03T11:03:18.058Z,54.79
2024-03-03T11:05:49.137Z,55.52
2024-03-03T11:08:21.967Z,55.25
2024-03-03T11:11:01.587Z,55.43
2024-03-03T11:13:39.326Z,54.85
2024-03-03T11:16:11.315Z,55.31
2024-03-03T11:18:51.753Z,54.47
2024-03-03T11:21:31.875Z,54.64
2024-03-03T11:24:08.421Z,54.28
2024-03-03T11:26:48.936Z,54.24
2024-03-03T11:29:23.639Z,54.75
2024-03-03T11:31:54.016Z,55.37
2024-03-03T11:34:24.861Z,54.65
2024-03-03T11:36:57.166Z,54.84
2024-03-03T11:39:27.961Z,54.61
2024-03-03T11:42:00.304Z,54.69
2024-03-03T11:44:54.772Z,54.23
2024-03-03T11:47:32.337Z,52.82
2024-03-03T11:50:03.687Z,51.79
2024-03-03T11:52:45.497Z,52.40
2024-03-03T11:55:19.942Z,51.08
2024-03-03T11:57:50.459Z,50.39
2024-03-03T12:00:25.780Z,50.31
2024-03-03T12:02:58.156Z,49.44
2024-03-03T12:05:29.806Z,49.47
2024-03-03T12:08:01.472Z,49.01
2024-03-03T12:10:34.252Z,49.76
2024-03-03T12:13:05.931Z,49.26
2024-03-03T12:15:38.850Z,47.94
2024-03-03T12:18:12.962Z,47.81
2024-03-03T12:20:45.188Z,48.26
2024-03-03T12:23:17.342Z,46.33
2024-03-03T12:25:47.649Z,46.97
2024-03-03T12:28:18.020Z,45.74
2024-03-03T12:30:50.780Z,47.95
2024-03-03T12:33:21.845Z,47.51
2024-03-03T12:35:56.374Z,47.16
2024-03-03T12:38:26.901Z,47.97
2024-03-03T12:40:57.833Z,47.89
2024-03-03T12:43:28.358Z,47.94
2024-03-03T12:46:01.446Z,48.86
2024-03-03T12:48:33.043Z,48.08
2024-03-03T12:51:03.491Z,48.13
2024-03-03T12:53:40.089Z,47.57
2024-03-03T12:56:23.454Z,48.60
2024-03-03T12:58:53.916Z,47.10
2024-03-03T13:01:27.075Z,47.13
2024-03-03T13:03:57.277Z,45.26
2024-03-03T13:06:27.826Z,46.22
2024-03-03T13:08:59.469Z,44.06
2024-03-03T13:11:29.712Z,44.42
2024-03-03T13:14:00.483Z,45.32
2024-03-03T13:16:35.569Z,45.13
2024-03-03T13:19:05.752Z,45.14
2024-03-03T13:21:37.080Z,45.16
2024-03-03T13:24:18.798Z,44.52
2024-03-03T13:26:49.459Z,44.99
2024-03-03T13:29:19.772Z,45.03
2024-03-03T13:31:53.441Z,45.11
2024-03-03T13:34:23.600Z,46.25
2024-03-03T13:36:54.017Z,46.12
2024-03-03T13:39:24.177Z,45.14
2024-03-03T13:41:54.261Z,44.88
2024-03-03T13:44:24.391Z,45.29
2024-03-03T13:46:57.581Z,45.81
2024-03-03T13:49:27.722Z,44.60
2024-03-03T13:51:57.968Z,45.40
2024-03-03T13:54:28.201Z,43.68
2024-03-03T13:56:58.434Z,42.42
2024-03-03T13:59:28.610Z,40.96
2024-03-03T14:02:01.797Z,39.13
2024-03-03T14:04:34.569Z,38.05
2024-03-03T14:07:09.070Z,38.22
2024-03-03T14:09:42.047Z,36.30
2024-03-03T14:12:15.144Z,35.29
2024-03-03T14:14:47.922Z,35.05
2024-03-03T14:17:23.740Z,32.99
2024-03-03T14:19:57.566Z,33.43
2024-03-03T14:22:30.286Z,33.93
2024-03-03T14:25:05.534Z,34.85
2024-03-03T14:27:40.328Z,34.04
2024-03-03T14:30:14.710Z,34.37
2024-03-03T14:32:50.132Z,34.45
2024-03-03T14:35:22.966Z,35.46
2024-03-03T14:37:56.078Z,36.13
2024-03-03T14:40:29.339Z,36.81
2024-03-03T14:43:02.180Z,36.63
2024-03-03T14:45:36.246Z,37.40
2024-03-03T14:48:12.291Z,38.69
2024-03-03T14:50:44.933Z,39.85
2024-03-03T14:53:17.502Z,39.59
2024-03-03T14:55:51.321Z,39.89
2024-03-03T14:58:26.042Z,40.86
2024-03-03T15:00:59.349Z,41.99
2024-03-03T15:03:34.661Z,42.30
2024-03-03T15:06:08.593Z,41.99
2024-03-03T15:08:42.505Z,42.84
2024-03-03T15:11:15.437Z,43.13
2024-03-03T15:13:50.745Z,42.64
2024-03-03T15:16:23.900Z,43.33
2024-03-03T15:18:59.665Z,43.88
2024-03-03T15:21:32.772Z,44.50
2024-03-03T15:24:05.398Z,44.08
2024-03-03T15:26:39.283Z,45.25
2024-03-03T15:29:12.381Z,45.47
2024-03-03T15:31:45.869Z,45.39
2024-03-03T15:34:22.129Z,45.91
2024-03-03T15:36:55.432Z,45.48
2024-03-03T15:39:28.726Z,46.34
2024-03-03T15:42:01.504Z,46.42
2024-03-03T15:44:34.315Z,47.13
2024-03-03T15:47:08.142Z,46.53
2024-03-03T15:49:43.661Z,47.50
2024-03-03T15:52:16.566Z,47.55
2024-03-03T15:54:49.670Z,47.33
2024-03-03T15:57:23.044Z,47.68
2024-03-03T15:59:56.227Z,48.23
2024-03-03T16:02:29.323Z,48.45
2024-03-03T16:05:02.055Z,49.14
2024-03-03T16:07:34.648Z,49.96
2024-03-03T16:10:07.286Z,49.46
2024-03-03T16:12:38.618Z,49.63
2024-03-03T16:15:09.676Z,49.39
2024-03-03T16:17:40.393Z,49.92
2024-03-03T16:20:16.479Z,50.37
2024-03-03T16:22:46.673Z,50.88
2024-03-03T16:25:17.062Z,51.28
2024-03-03T16:27:47.713Z,51.45
2024-03-03T16:30:18.298Z,52.14
2024-03-03T16:32:48.459Z,52.55
2024-03-03T16:35:21.142Z,52.71
2024-03-03T16:37:52.473Z,52.73
2024-03-03T16:40:22.595Z,53.29
2024-03-03T16:43:02.793Z,53.34
2024-03-03T16:45:33.722Z,53.70
2024-03-03T16:48:04.044Z,53.20
2024-03-03T16:50:36.776Z,53.78
2024-03-03T16:53:07.379Z,53.93
2024-03-03T16:55:37.636Z,55.04
2024-03-03T16:58:09.020Z,55.38
2024-03-03T17:00:39.202Z,56.19
2024-03-03T17:03:09.320Z,56.18
2024-03-03T17:05:42.022Z,57.13
2024-03-03T17:08:12.463Z,56.85
2024-03-03T17:10:42.621Z,57.17
2024-03-03T17:13:12.763Z,57.71
2024-03-03T17:15:42.886Z,57.72
2024-03-03T17:18:13.869Z,58.43
2024-03-03T17:20:48.699Z,58.55
2024-03-03T17:23:19.310Z,58.69
2024-03-03T17:25:49.452Z,59.24
2024-03-03T17:28:21.398Z,59.65
2024-03-03T17:30:52.758Z,59.78
2024-03-03T17:33:23.005Z,60.28
2024-03-03T17:35:55.814Z,60.63
2024-03-03T17:38:26.152Z,60.69
2024-03-03T17:40:56.282Z,61.02
2024-03-03T17:43:26.411Z,61.26
2024-03-03T17:45:56.675Z,61.42
2024-03-03T17:48:26.874Z,61.61
2024-03-03T17:50:59.622Z,61.84
2024-03-03T17:53:29.714Z,61.64
2024-03-03T17:55:59.924Z,62.20
2024-03-03T17:58:30.515Z,61.99
2024-03-03T18:01:03.215Z,62.40
2024-03-03T18:03:34.068Z,62.62
2024-03-03T18:06:07.350Z,62.55
2024-03-03T18:08:37.797Z,62.74
2024-03-03T18:11:08.408Z,62.91
2024-03-03T18:13:38.596Z,63.03
2024-03-03T18:16:11.133Z,63.57
2024-03-03T18:18:41.381Z,63.47
2024-03-03T18:21:15.750Z,63.65
2024-03-03T18:23:46.080Z,63.68
2024-03-03T18:26:16.247Z,64.44
2024-03-03T18:28:46.319Z,64.65
2024-03-03T18:31:17.804Z,65.52
2024-03-03T18:33:47.999Z,66.01
2024-03-03T18:36:20.812Z,66.06
2024-03-03T18:38:50.981Z,66.20
2024-03-03T18:41:21.902Z,66.85
2024-03-03T18:43:52.139Z,66.97
2024-03-03T18:46:22.297Z,67.93
2024-03-03T18:48:52.938Z,68.67
2024-03-03T18:51:26.709Z,68.83
2024-03-03T18:53:56.825Z,69.06
2024-03-03T18:56:27.438Z,69.16
2024-03-03T18:58:57.572Z,69.37
2024-03-03T19:01:27.726Z,69.45
2024-03-03T19:03:57.858Z,69.26
2024-03-03T19:06:30.762Z,69.38
2024-03-03T19:09:01.175Z,68.97
2024-03-03T19:11:31.409Z,69.36
2024-03-03T19:14:01.601Z,69.49
2024-03-03T19:16:36.188Z,69.51
2024-03-03T19:19:07.371Z,69.31
2024-03-03T19:21:42.815Z,69.55
2024-03-03T19:24:13.068Z,69.56
2024-03-03T19:26:43.539Z,69.64
2024-03-03T19:29:13.993Z,69.73
2024-03-03T19:31:44.270Z,69.99
2024-03-03T19:34:14.568Z,70.33
2024-03-03T19:36:48.738Z,70.64
2024-03-03T19:39:18.902Z,70.90
2024-03-03T19:41:49.052Z,71.22
2024-03-03T19:44:19.242Z,71.77
2024-03-03T19:46:49.647Z,72.18
2024-03-03T19:49:19.805Z,72.48
2024-03-03T19:51:52.854Z,72.75
2024-03-03T19:54:23.028Z,73.09
2024-03-03T19:56:53.664Z,73.83
2024-03-03T19:59:23.753Z,73.78
2024-03-03T20:01:55.047Z,73.75
2024-03-03T20:04:25.278Z,74.30
2024-03-03T20:06:58.442Z,74.26
2024-03-03T20:09:28.827Z,74.29
2024-03-03T20:11:58.992Z,74.52
2024-03-03T20:14:29.055Z,74.75
2024-03-03T20:16:59.710Z,75.30
2024-03-03T20:19:30.294Z,75.72
2024-03-03T20:22:03.301Z,75.78
2024-03-03T20:24:33.450Z,76.15
2024-03-03T20:27:04.742Z,76.31
2024-03-03T20:29:34.925Z,76.51
2024-03-03T20:32:05.314Z,76.82
2024-03-03T20:34:35.507Z,76.85
2024-03-03T20:37:08.656Z,77.15
2024-03-03T20:39:38.878Z,76.92
2024-03-03T20:42:09.510Z,76.93
2024-03-03T20:44:39.642Z,77.15
2024-03-03T20:47:09.958Z,77.14
2024-03-03T20:49:40.690Z,77.06
2024-03-03T20:52:13.488Z,76.97
2024-03-03T20:54:43.601Z,76.91
2024-03-03T20:57:14.537Z,77.03
2024-03-03T20:59:46.788Z,77.19
2024-03-03T21:02:19.729Z,77.27
2024-03-03T21:04:49.865Z,77.37
2024-03-03T21:07:23.021Z,77.50
2024-03-03T21:09:53.308Z,77.52
2024-03-03T21:12:23.394Z,77.79
2024-03-03T21:14:54.365Z,77.90
2024-03-03T21:17:24.730Z,77.90
2024-03-03T21:19:54.866Z,77.83
2024-03-03T21:22:28.278Z,77.80
2024-03-03T21:24:58.595Z,78.03
2024-03-03T21:27:29.254Z,78.28
2024-03-03T21:29:59.351Z,78.25
2024-03-03T21:32:29.547Z,78.68
2024-03-03T21:35:00.363Z,78.73
2024-03-03T21:37:33.441Z,78.96
2024-03-03T21:40:03.673Z,79.22
2024-03-03T21:42:33.745Z,79.22
2024-03-03T21:45:03.795Z,79.66
2024-03-03T21:47:34.116Z,79.59
2024-03-03T21:50:04.304Z,79.71
2024-03-03T21:52:37.133Z,79.89
2024-03-03T21:55:08.628Z,80.13
2024-03-03T21:57:39.289Z,79.92
2024-03-03T22:00:11.425Z,80.24
2024-03-03T22:02:44.328Z,80.21
2024-03-03T22:05:14.925Z,80.44
2024-03-03T22:07:49.702Z,80.52
2024-03-03T22:10:19.871Z,80.82
2024-03-03T22:12:50.023Z,80.79
2024-03-03T22:15:20.188Z,80.96
2024-03-03T22:17:50.738Z,81.25
2024-03-03T22:20:20.961Z,81.02
2024-03-03T22:22:53.641Z,81.49
2024-03-03T22:25:24.070Z,81.21
2024-03-03T22:27:55.070Z,81.38
2024-03-03T22:30:25.636Z,81.36
2024-03-03T22:32:55.869Z,81.34
2024-03-03T22:35:25.979Z,81.31
2024-03-03T22:37:58.929Z,81.32
2024-03-03T22:40:31.094Z,81.63
2024-03-03T22:43:01.308Z,81.71
2024-03-03T22:45:31.492Z,81.89
2024-03-03T22:48:01.863Z,81.83
2024-03-03T22:50:31.969Z,82.03
2024-03-03T22:53:04.635Z,82.25
2024-03-03T22:55:35.011Z,82.54
2024-03-03T22:58:05.766Z,82.73
2024-03-03T23:00:39.652Z,82.79
2024-03-03T23:03:09.969Z,83.14
2024-03-03T23:05:40.059Z,83.07
2024-03-03T23:08:13.334Z,83.44
2024-03-03T23:10:43.524Z,83.28
2024-03-03T23:13:14.377Z,83.39
2024-03-03T23:15:45.768Z,83.76
2024-03-03T23:18:16.773Z,83.20
2024-03-03T23:20:46.899Z,83.27
2024-03-03T23:23:20.014Z,83.30
2024-03-03T23:25:50.363Z,83.83
2024-03-03T23:28:21.828Z,84.10
2024-03-03T23:30:52.034Z,84.07
2024-03-03T23:33:22.228Z,84.00
2024-03-03T23:35:52.320Z,84.43
2024-03-03T23:38:25.161Z,84.15
2024-03-03T23:40:55.325Z,84.01
2024-03-03T23:43:25.437Z,83.78
2024-03-03T23:45:55.613Z,83.73
2024-03-03T23:48:25.942Z,83.51
2024-03-03T23:50:56.163Z,83.59
2024-03-03T23:53:29.682Z,83.62
2024-03-03T23:55:59.839Z,83.28
2024-03-03T23:58:30.207Z,83.14
